sensor_id;sensor_type;location;lat;lon;timestamp;P1;durP1;ratioP1;P2;durP2;ratioP2
31126;SDS011;17775;57.948;12.514;2023-09-07T00:01:34;0.35;;;0.30;;
31126;SDS011;17775;57.948;12.514;2023-09-07T00:04:01;0.82;;;0.40;;
31126;SDS011;17775;57.948;12.514;2023-09-07T00:06:30;0.50;;;0.30;;
31126;SDS011;17775;57.948;12.514;2023-09-07T00:08:56;0.40;;;0.30;;
31126;SDS011;17775;57.948;12.514;2023-09-07T00:11:23;0.60;;;0.50;;
31126;SDS011;17775;57.948;12.514;2023-09-07T00:13:49;0.60;;;0.47;;
31126;SDS011;17775;57.948;12.514;2023-09-07T00:16:17;0.60;;;0.55;;
31126;SDS011;17775;57.948;12.514;2023-09-07T00:18:44;0.75;;;0.73;;
31126;SDS011;17775;57.948;12.514;2023-09-07T00:21:10;0.85;;;0.80;;
31126;SDS011;17775;57.948;12.514;2023-09-07T00:23:39;0.77;;;0.60;;
31126;SDS011;17775;57.948;12.514;2023-09-07T00:26:06;1.20;;;0.82;;
31126;SDS011;17775;57.948;12.514;2023-09-07T00:28:32;0.80;;;0.70;;
31126;SDS011;17775;57.948;12.514;2023-09-07T00:30:59;0.63;;;0.60;;
31126;SDS011;17775;57.948;12.514;2023-09-07T00:33:26;0.82;;;0.80;;
31126;SDS011;17775;57.948;12.514;2023-09-07T00:35:52;1.25;;;0.98;;
31126;SDS011;17775;57.948;12.514;2023-09-07T00:38:19;1.95;;;0.90;;
31126;SDS011;17775;57.948;12.514;2023-09-07T00:40:45;1.05;;;0.85;;
31126;SDS011;17775;57.948;12.514;2023-09-07T00:43:12;1.40;;;1.00;;
31126;SDS011;17775;57.948;12.514;2023-09-07T00:45:39;2.15;;;0.88;;
31126;SDS011;17775;57.948;12.514;2023-09-07T00:48:06;0.80;;;0.60;;
31126;SDS011;17775;57.948;12.514;2023-09-07T00:50:32;0.75;;;0.73;;
31126;SDS011;17775;57.948;12.514;2023-09-07T00:52:59;0.70;;;0.70;;
31126;SDS011;17775;57.948;12.514;2023-09-07T00:55:27;0.60;;;0.60;;
31126;SDS011;17775;57.948;12.514;2023-09-07T00:57:54;0.77;;;0.70;;
31126;SDS011;17775;57.948;12.514;2023-09-07T01:00:21;0.57;;;0.57;;
31126;SDS011;17775;57.948;12.514;2023-09-07T01:02:48;0.65;;;0.50;;
31126;SDS011;17775;57.948;12.514;2023-09-07T01:05:14;0.68;;;0.60;;
31126;SDS011;17775;57.948;12.514;2023-09-07T01:07:47;0.82;;;0.50;;
31126;SDS011;17775;57.948;12.514;2023-09-07T01:10:14;0.68;;;0.52;;
31126;SDS011;17775;57.948;12.514;2023-09-07T01:12:41;0.60;;;0.60;;
31126;SDS011;17775;57.948;12.514;2023-09-07T01:15:08;0.50;;;0.50;;
31126;SDS011;17775;57.948;12.514;2023-09-07T01:17:35;0.63;;;0.50;;
31126;SDS011;17775;57.948;12.514;2023-09-07T01:20:03;0.45;;;0.45;;
31126;SDS011;17775;57.948;12.514;2023-09-07T01:22:32;0.38;;;0.38;;
31126;SDS011;17775;57.948;12.514;2023-09-07T01:24:59;0.30;;;0.30;;
31126;SDS011;17775;57.948;12.514;2023-09-07T01:27:26;0.47;;;0.45;;
31126;SDS011;17775;57.948;12.514;2023-09-07T01:29:53;0.50;;;0.50;;
31126;SDS011;17775;57.948;12.514;2023-09-07T01:32:20;0.60;;;0.50;;
31126;SDS011;17775;57.948;12.514;2023-09-07T01:34:46;0.65;;;0.60;;
31126;SDS011;17775;57.948;12.514;2023-09-07T01:37:13;0.70;;;0.60;;
31126;SDS011;17775;57.948;12.514;2023-09-07T01:39:39;0.60;;;0.60;;
31126;SDS011;17775;57.948;12.514;2023-09-07T01:42:06;0.77;;;0.60;;
31126;SDS011;17775;57.948;12.514;2023-09-07T01:44:32;0.63;;;0.57;;
31126;SDS011;17775;57.948;12.514;2023-09-07T01:46:59;0.55;;;0.40;;
31126;SDS011;17775;57.948;12.514;2023-09-07T01:49:25;0.80;;;0.50;;
31126;SDS011;17775;57.948;12.514;2023-09-07T01:51:52;0.50;;;0.40;;
31126;SDS011;17775;57.948;12.514;2023-09-07T01:54:18;0.55;;;0.43;;
31126;SDS011;17775;57.948;12.514;2023-09-07T01:56:49;0.60;;;0.50;;
31126;SDS011;17775;57.948;12.514;2023-09-07T01:59:15;0.40;;;0.40;;
31126;SDS011;17775;57.948;12.514;2023-09-07T02:01:42;0.50;;;0.50;;
31126;SDS011;17775;57.948;12.514;2023-09-07T02:04:08;0.50;;;0.50;;
31126;SDS011;17775;57.948;12.514;2023-09-07T02:06:35;0.40;;;0.40;;
31126;SDS011;17775;57.948;12.514;2023-09-07T02:09:01;0.40;;;0.40;;
31126;SDS011;17775;57.948;12.514;2023-09-07T02:11:28;0.75;;;0.60;;
31126;SDS011;17775;57.948;12.514;2023-09-07T02:13:54;1.02;;;0.60;;
31126;SDS011;17775;57.948;12.514;2023-09-07T02:16:21;1.95;;;1.00;;
31126;SDS011;17775;57.948;12.514;2023-09-07T02:18:49;1.35;;;1.10;;
31126;SDS011;17775;57.948;12.514;2023-09-07T02:21:16;1.60;;;0.98;;
31126;SDS011;17775;57.948;12.514;2023-09-07T02:23:42;0.98;;;0.80;;
31126;SDS011;17775;57.948;12.514;2023-09-07T02:26:09;1.73;;;1.20;;
31126;SDS011;17775;57.948;12.514;2023-09-07T02:28:35;1.30;;;0.80;;
31126;SDS011;17775;57.948;12.514;2023-09-07T02:31:02;0.93;;;0.88;;
31126;SDS011;17775;57.948;12.514;2023-09-07T02:33:29;1.38;;;1.00;;
31126;SDS011;17775;57.948;12.514;2023-09-07T02:35:59;1.45;;;0.90;;
31126;SDS011;17775;57.948;12.514;2023-09-07T02:38:25;1.00;;;0.90;;
31126;SDS011;17775;57.948;12.514;2023-09-07T02:40:52;1.08;;;0.93;;
31126;SDS011;17775;57.948;12.514;2023-09-07T02:43:19;0.95;;;0.85;;
31126;SDS011;17775;57.948;12.514;2023-09-07T02:45:45;1.60;;;1.00;;
31126;SDS011;17775;57.948;12.514;2023-09-07T02:48:12;1.15;;;0.90;;
31126;SDS011;17775;57.948;12.514;2023-09-07T02:50:38;1.23;;;0.90;;
31126;SDS011;17775;57.948;12.514;2023-09-07T02:53:06;1.13;;;1.00;;
31126;SDS011;17775;57.948;12.514;2023-09-07T02:55:34;1.77;;;1.13;;
31126;SDS011;17775;57.948;12.514;2023-09-07T02:58:02;0.90;;;0.80;;
31126;SDS011;17775;57.948;12.514;2023-09-07T03:00:29;1.45;;;1.00;;
31126;SDS011;17775;57.948;12.514;2023-09-07T03:02:55;1.00;;;0.90;;
31126;SDS011;17775;57.948;12.514;2023-09-07T03:05:22;1.08;;;0.90;;
31126;SDS011;17775;57.948;12.514;2023-09-07T03:07:48;1.50;;;1.10;;
31126;SDS011;17775;57.948;12.514;2023-09-07T03:10:15;0.88;;;0.73;;
31126;SDS011;17775;57.948;12.514;2023-09-07T03:12:41;0.93;;;0.77;;
31126;SDS011;17775;57.948;12.514;2023-09-07T03:15:08;0.60;;;0.60;;
31126;SDS011;17775;57.948;12.514;2023-09-07T03:17:34;1.08;;;0.80;;
31126;SDS011;17775;57.948;12.514;2023-09-07T03:20:01;1.02;;;0.80;;
31126;SDS011;17775;57.948;12.514;2023-09-07T03:22:43;0.70;;;0.68;;
31126;SDS011;17775;57.948;12.514;2023-09-07T03:25:10;1.10;;;0.80;;
31126;SDS011;17775;57.948;12.514;2023-09-07T03:27:37;1.30;;;1.10;;
31126;SDS011;17775;57.948;12.514;2023-09-07T03:30:04;1.67;;;1.00;;
31126;SDS011;17775;57.948;12.514;2023-09-07T03:32:32;1.55;;;1.02;;
31126;SDS011;17775;57.948;12.514;2023-09-07T03:35:00;2.65;;;1.17;;
31126;SDS011;17775;57.948;12.514;2023-09-07T03:37:29;1.88;;;1.27;;
31126;SDS011;17775;57.948;12.514;2023-09-07T03:39:56;1.08;;;0.90;;
31126;SDS011;17775;57.948;12.514;2023-09-07T03:42:22;1.40;;;1.10;;
31126;SDS011;17775;57.948;12.514;2023-09-07T03:44:49;1.00;;;0.90;;
31126;SDS011;17775;57.948;12.514;2023-09-07T03:47:15;0.80;;;0.77;;
31126;SDS011;17775;57.948;12.514;2023-09-07T03:49:42;1.13;;;0.88;;
31126;SDS011;17775;57.948;12.514;2023-09-07T03:52:09;1.83;;;1.35;;
31126;SDS011;17775;57.948;12.514;2023-09-07T03:54:35;2.28;;;1.58;;
31126;SDS011;17775;57.948;12.514;2023-09-07T03:57:02;2.00;;;1.33;;
31126;SDS011;17775;57.948;12.514;2023-09-07T03:59:29;1.83;;;1.42;;
31126;SDS011;17775;57.948;12.514;2023-09-07T04:01:58;3.63;;;2.05;;
31126;SDS011;17775;57.948;12.514;2023-09-07T04:04:26;2.30;;;1.90;;
31126;SDS011;17775;57.948;12.514;2023-09-07T04:06:52;1.80;;;1.13;;
31126;SDS011;17775;57.948;12.514;2023-09-07T04:09:19;1.48;;;1.27;;
31126;SDS011;17775;57.948;12.514;2023-09-07T04:11:45;1.30;;;1.00;;
31126;SDS011;17775;57.948;12.514;2023-09-07T04:14:11;2.20;;;1.73;;
31126;SDS011;17775;57.948;12.514;2023-09-07T04:16:38;1.77;;;1.42;;
31126;SDS011;17775;57.948;12.514;2023-09-07T04:19:09;2.53;;;1.52;;
31126;SDS011;17775;57.948;12.514;2023-09-07T04:21:36;3.30;;;1.75;;
31126;SDS011;17775;57.948;12.514;2023-09-07T04:24:02;1.40;;;1.10;;
31126;SDS011;17775;57.948;12.514;2023-09-07T04:26:28;1.48;;;1.38;;
31126;SDS011;17775;57.948;12.514;2023-09-07T04:28:55;1.65;;;1.15;;
31126;SDS011;17775;57.948;12.514;2023-09-07T04:31:21;1.60;;;0.85;;
31126;SDS011;17775;57.948;12.514;2023-09-07T04:33:50;0.80;;;0.80;;
31126;SDS011;17775;57.948;12.514;2023-09-07T04:36:20;0.82;;;0.70;;
31126;SDS011;17775;57.948;12.514;2023-09-07T04:38:46;0.68;;;0.60;;
31126;SDS011;17775;57.948;12.514;2023-09-07T04:41:13;0.55;;;0.55;;
31126;SDS011;17775;57.948;12.514;2023-09-07T04:43:40;0.70;;;0.70;;
31126;SDS011;17775;57.948;12.514;2023-09-07T04:46:09;0.60;;;0.60;;
31126;SDS011;17775;57.948;12.514;2023-09-07T04:48:36;0.50;;;0.40;;
31126;SDS011;17775;57.948;12.514;2023-09-07T04:51:03;0.50;;;0.50;;
31126;SDS011;17775;57.948;12.514;2023-09-07T04:53:31;0.40;;;0.40;;
31126;SDS011;17775;57.948;12.514;2023-09-07T04:55:58;0.35;;;0.32;;
31126;SDS011;17775;57.948;12.514;2023-09-07T04:58:25;0.30;;;0.30;;
31126;SDS011;17775;57.948;12.514;2023-09-07T05:00:52;0.40;;;0.40;;
31126;SDS011;17775;57.948;12.514;2023-09-07T05:03:18;0.30;;;0.30;;
31126;SDS011;17775;57.948;12.514;2023-09-07T05:05:50;0.47;;;0.40;;
31126;SDS011;17775;57.948;12.514;2023-09-07T05:08:17;0.40;;;0.40;;
31126;SDS011;17775;57.948;12.514;2023-09-07T05:10:47;0.32;;;0.32;;
31126;SDS011;17775;57.948;12.514;2023-09-07T05:13:14;0.32;;;0.30;;
31126;SDS011;17775;57.948;12.514;2023-09-07T05:15:50;0.40;;;0.32;;
31126;SDS011;17775;57.948;12.514;2023-09-07T05:18:17;0.32;;;0.32;;
31126;SDS011;17775;57.948;12.514;2023-09-07T05:20:46;0.30;;;0.30;;
31126;SDS011;17775;57.948;12.514;2023-09-07T05:23:18;0.30;;;0.30;;
31126;SDS011;17775;57.948;12.514;2023-09-07T05:25:47;0.50;;;0.40;;
31126;SDS011;17775;57.948;12.514;2023-09-07T05:28:14;0.40;;;0.40;;
31126;SDS011;17775;57.948;12.514;2023-09-07T05:30:41;0.30;;;0.30;;
31126;SDS011;17775;57.948;12.514;2023-09-07T05:33:11;0.30;;;0.30;;
31126;SDS011;17775;57.948;12.514;2023-09-07T05:35:38;0.20;;;0.20;;
31126;SDS011;17775;57.948;12.514;2023-09-07T05:38:04;0.20;;;0.20;;
31126;SDS011;17775;57.948;12.514;2023-09-07T05:40:37;0.30;;;0.30;;
31126;SDS011;17775;57.948;12.514;2023-09-07T05:43:04;0.20;;;0.20;;
31126;SDS011;17775;57.948;12.514;2023-09-07T05:45:31;0.20;;;0.20;;
31126;SDS011;17775;57.948;12.514;2023-09-07T05:48:01;0.30;;;0.30;;
31126;SDS011;17775;57.948;12.514;2023-09-07T05:50:27;0.20;;;0.20;;
31126;SDS011;17775;57.948;12.514;2023-09-07T05:52:54;0.28;;;0.28;;
31126;SDS011;17775;57.948;12.514;2023-09-07T05:55:20;0.40;;;0.40;;
31126;SDS011;17775;57.948;12.514;2023-09-07T05:57:48;0.40;;;0.40;;
31126;SDS011;17775;57.948;12.514;2023-09-07T06:00:15;0.30;;;0.30;;
31126;SDS011;17775;57.948;12.514;2023-09-07T06:02:44;0.20;;;0.20;;
31126;SDS011;17775;57.948;12.514;2023-09-07T06:05:11;0.30;;;0.30;;
31126;SDS011;17775;57.948;12.514;2023-09-07T06:07:38;0.40;;;0.40;;
31126;SDS011;17775;57.948;12.514;2023-09-07T06:10:04;0.40;;;0.35;;
31126;SDS011;17775;57.948;12.514;2023-09-07T06:12:32;0.80;;;0.60;;
31126;SDS011;17775;57.948;12.514;2023-09-07T06:15:01;0.90;;;0.70;;
31126;SDS011;17775;57.948;12.514;2023-09-07T06:17:28;1.80;;;1.10;;
31126;SDS011;17775;57.948;12.514;2023-09-07T06:19:55;1.15;;;0.80;;
31126;SDS011;17775;57.948;12.514;2023-09-07T06:22:25;0.93;;;0.73;;
31126;SDS011;17775;57.948;12.514;2023-09-07T06:24:52;1.58;;;0.95;;
31126;SDS011;17775;57.948;12.514;2023-09-07T06:27:18;1.02;;;0.70;;
31126;SDS011;17775;57.948;12.514;2023-09-07T06:29:45;1.80;;;1.17;;
31126;SDS011;17775;57.948;12.514;2023-09-07T06:32:11;1.38;;;1.00;;
31126;SDS011;17775;57.948;12.514;2023-09-07T06:34:38;1.13;;;0.90;;
31126;SDS011;17775;57.948;12.514;2023-09-07T06:37:05;1.25;;;0.82;;
31126;SDS011;17775;57.948;12.514;2023-09-07T06:39:32;2.10;;;1.40;;
31126;SDS011;17775;57.948;12.514;2023-09-07T06:41:58;1.67;;;1.00;;
31126;SDS011;17775;57.948;12.514;2023-09-07T06:44:24;1.42;;;1.00;;
31126;SDS011;17775;57.948;12.514;2023-09-07T06:46:51;1.20;;;0.82;;
31126;SDS011;17775;57.948;12.514;2023-09-07T06:49:17;1.35;;;0.90;;
31126;SDS011;17775;57.948;12.514;2023-09-07T06:51:44;1.50;;;0.90;;
31126;SDS011;17775;57.948;12.514;2023-09-07T06:54:10;1.02;;;0.75;;
31126;SDS011;17775;57.948;12.514;2023-09-07T06:56:37;0.98;;;0.73;;
31126;SDS011;17775;57.948;12.514;2023-09-07T06:59:03;1.52;;;1.02;;
31126;SDS011;17775;57.948;12.514;2023-09-07T07:01:30;1.30;;;0.90;;
31126;SDS011;17775;57.948;12.514;2023-09-07T07:03:59;1.88;;;1.10;;
31126;SDS011;17775;57.948;12.514;2023-09-07T07:06:26;1.17;;;1.00;;
31126;SDS011;17775;57.948;12.514;2023-09-07T07:08:53;1.35;;;0.80;;
31126;SDS011;17775;57.948;12.514;2023-09-07T07:11:19;1.20;;;0.73;;
31126;SDS011;17775;57.948;12.514;2023-09-07T07:13:46;0.98;;;0.73;;
31126;SDS011;17775;57.948;12.514;2023-09-07T07:16:12;1.02;;;0.70;;
31126;SDS011;17775;57.948;12.514;2023-09-07T07:18:40;1.20;;;0.90;;
31126;SDS011;17775;57.948;12.514;2023-09-07T07:21:09;1.27;;;0.90;;
31126;SDS011;17775;57.948;12.514;2023-09-07T07:23:36;1.35;;;0.80;;
31126;SDS011;17775;57.948;12.514;2023-09-07T07:26:03;0.80;;;0.80;;
31126;SDS011;17775;57.948;12.514;2023-09-07T07:28:30;1.38;;;0.80;;
31126;SDS011;17775;57.948;12.514;2023-09-07T07:30:56;0.93;;;0.70;;
31126;SDS011;17775;57.948;12.514;2023-09-07T07:33:23;0.82;;;0.63;;
31126;SDS011;17775;57.948;12.514;2023-09-07T07:35:49;0.90;;;0.68;;
31126;SDS011;17775;57.948;12.514;2023-09-07T07:38:16;0.90;;;0.70;;
31126;SDS011;17775;57.948;12.514;2023-09-07T07:40:43;0.95;;;0.68;;
31126;SDS011;17775;57.948;12.514;2023-09-07T07:43:09;0.60;;;0.60;;
31126;SDS011;17775;57.948;12.514;2023-09-07T07:45:36;0.90;;;0.75;;
31126;SDS011;17775;57.948;12.514;2023-09-07T07:48:04;1.88;;;0.90;;
31126;SDS011;17775;57.948;12.514;2023-09-07T07:50:40;1.00;;;0.73;;
31126;SDS011;17775;57.948;12.514;2023-09-07T07:53:07;1.10;;;0.90;;
31126;SDS011;17775;57.948;12.514;2023-09-07T07:55:37;1.02;;;0.90;;
31126;SDS011;17775;57.948;12.514;2023-09-07T08:00:33;1.38;;;1.15;;
31126;SDS011;17775;57.948;12.514;2023-09-07T08:03:01;1.58;;;1.30;;
31126;SDS011;17775;57.948;12.514;2023-09-07T08:05:29;2.10;;;1.13;;
31126;SDS011;17775;57.948;12.514;2023-09-07T08:07:56;1.98;;;1.23;;
31126;SDS011;17775;57.948;12.514;2023-09-07T08:10:22;1.52;;;1.00;;
31126;SDS011;17775;57.948;12.514;2023-09-07T08:12:52;1.00;;;0.82;;
31126;SDS011;17775;57.948;12.514;2023-09-07T08:15:19;1.02;;;0.80;;
31126;SDS011;17775;57.948;12.514;2023-09-07T08:17:48;1.25;;;1.10;;
31126;SDS011;17775;57.948;12.514;2023-09-07T08:20:15;1.98;;;1.10;;
31126;SDS011;17775;57.948;12.514;2023-09-07T08:22:42;0.63;;;0.60;;
31126;SDS011;17775;57.948;12.514;2023-09-07T08:25:11;0.77;;;0.60;;
31126;SDS011;17775;57.948;12.514;2023-09-07T08:27:40;1.17;;;0.77;;
31126;SDS011;17775;57.948;12.514;2023-09-07T08:32:36;1.95;;;1.27;;
31126;SDS011;17775;57.948;12.514;2023-09-07T08:35:05;1.50;;;1.10;;
31126;SDS011;17775;57.948;12.514;2023-09-07T08:37:34;0.95;;;0.70;;
31126;SDS011;17775;57.948;12.514;2023-09-07T08:40:00;1.13;;;0.80;;
31126;SDS011;17775;57.948;12.514;2023-09-07T08:42:26;0.88;;;0.70;;
31126;SDS011;17775;57.948;12.514;2023-09-07T08:44:54;1.00;;;0.80;;
31126;SDS011;17775;57.948;12.514;2023-09-07T08:47:24;1.13;;;0.90;;
31126;SDS011;17775;57.948;12.514;2023-09-07T08:49:51;0.82;;;0.60;;
31126;SDS011;17775;57.948;12.514;2023-09-07T08:52:19;0.80;;;0.60;;
31126;SDS011;17775;57.948;12.514;2023-09-07T08:54:46;1.38;;;1.00;;
31126;SDS011;17775;57.948;12.514;2023-09-07T08:57:12;1.08;;;0.80;;
31126;SDS011;17775;57.948;12.514;2023-09-07T08:59:39;0.93;;;0.80;;
31126;SDS011;17775;57.948;12.514;2023-09-07T09:02:09;1.20;;;1.00;;
31126;SDS011;17775;57.948;12.514;2023-09-07T09:04:36;1.17;;;0.80;;
31126;SDS011;17775;57.948;12.514;2023-09-07T09:07:03;1.00;;;0.88;;
31126;SDS011;17775;57.948;12.514;2023-09-07T09:09:30;1.95;;;1.20;;
31126;SDS011;17775;57.948;12.514;2023-09-07T09:12:06;1.50;;;1.13;;
31126;SDS011;17775;57.948;12.514;2023-09-07T09:14:33;2.22;;;1.30;;
31126;SDS011;17775;57.948;12.514;2023-09-07T09:16:59;1.08;;;0.90;;
31126;SDS011;17775;57.948;12.514;2023-09-07T09:19:32;0.82;;;0.70;;
31126;SDS011;17775;57.948;12.514;2023-09-07T09:22:00;0.90;;;0.70;;
31126;SDS011;17775;57.948;12.514;2023-09-07T09:24:26;1.02;;;0.75;;
31126;SDS011;17775;57.948;12.514;2023-09-07T09:26:53;0.82;;;0.80;;
31126;SDS011;17775;57.948;12.514;2023-09-07T09:29:22;1.08;;;0.82;;
31126;SDS011;17775;57.948;12.514;2023-09-07T09:31:50;1.42;;;1.20;;
31126;SDS011;17775;57.948;12.514;2023-09-07T09:34:17;0.90;;;0.80;;
31126;SDS011;17775;57.948;12.514;2023-09-07T09:36:44;1.20;;;0.82;;
31126;SDS011;17775;57.948;12.514;2023-09-07T09:39:20;1.77;;;1.08;;
31126;SDS011;17775;57.948;12.514;2023-09-07T09:41:47;1.17;;;0.73;;
31126;SDS011;17775;57.948;12.514;2023-09-07T09:44:14;1.52;;;0.90;;
31126;SDS011;17775;57.948;12.514;2023-09-07T09:46:41;0.88;;;0.70;;
31126;SDS011;17775;57.948;12.514;2023-09-07T09:49:08;1.17;;;0.80;;
31126;SDS011;17775;57.948;12.514;2023-09-07T09:51:37;0.70;;;0.60;;
31126;SDS011;17775;57.948;12.514;2023-09-07T09:54:06;0.77;;;0.60;;
31126;SDS011;17775;57.948;12.514;2023-09-07T09:56:35;0.70;;;0.60;;
31126;SDS011;17775;57.948;12.514;2023-09-07T09:59:01;0.70;;;0.60;;
31126;SDS011;17775;57.948;12.514;2023-09-07T10:01:28;0.68;;;0.60;;
31126;SDS011;17775;57.948;12.514;2023-09-07T10:03:55;0.57;;;0.57;;
31126;SDS011;17775;57.948;12.514;2023-09-07T10:06:23;1.00;;;0.70;;
31126;SDS011;17775;57.948;12.514;2023-09-07T10:08:54;0.77;;;0.60;;
31126;SDS011;17775;57.948;12.514;2023-09-07T10:11:30;0.50;;;0.50;;
31126;SDS011;17775;57.948;12.514;2023-09-07T10:13:58;0.60;;;0.60;;
31126;SDS011;17775;57.948;12.514;2023-09-07T10:16:25;0.65;;;0.57;;
31126;SDS011;17775;57.948;12.514;2023-09-07T10:18:53;0.50;;;0.50;;
31126;SDS011;17775;57.948;12.514;2023-09-07T10:21:24;1.38;;;0.60;;
31126;SDS011;17775;57.948;12.514;2023-09-07T10:23:51;1.42;;;0.88;;
31126;SDS011;17775;57.948;12.514;2023-09-07T10:26:19;1.58;;;0.90;;
31126;SDS011;17775;57.948;12.514;2023-09-07T10:28:47;1.30;;;0.90;;
31126;SDS011;17775;57.948;12.514;2023-09-07T10:31:24;2.13;;;0.80;;
31126;SDS011;17775;57.948;12.514;2023-09-07T10:34:09;1.50;;;1.10;;
31126;SDS011;17775;57.948;12.514;2023-09-07T10:36:38;1.23;;;0.77;;
31126;SDS011;17775;57.948;12.514;2023-09-07T10:39:05;1.08;;;0.88;;
31126;SDS011;17775;57.948;12.514;2023-09-07T10:41:39;1.30;;;0.90;;
31126;SDS011;17775;57.948;12.514;2023-09-07T10:44:06;1.30;;;0.90;;
31126;SDS011;17775;57.948;12.514;2023-09-07T10:46:33;0.82;;;0.70;;
31126;SDS011;17775;57.948;12.514;2023-09-07T10:49:00;1.63;;;1.00;;
31126;SDS011;17775;57.948;12.514;2023-09-07T10:51:26;0.98;;;0.90;;
31126;SDS011;17775;57.948;12.514;2023-09-07T10:53:53;1.00;;;0.90;;
31126;SDS011;17775;57.948;12.514;2023-09-07T10:56:23;0.68;;;0.68;;
31126;SDS011;17775;57.948;12.514;2023-09-07T10:58:50;0.82;;;0.73;;
31126;SDS011;17775;57.948;12.514;2023-09-07T11:01:20;1.17;;;0.88;;
31126;SDS011;17775;57.948;12.514;2023-09-07T11:03:46;0.70;;;0.60;;
31126;SDS011;17775;57.948;12.514;2023-09-07T11:06:16;0.95;;;0.55;;
31126;SDS011;17775;57.948;12.514;2023-09-07T11:08:48;0.80;;;0.60;;
31126;SDS011;17775;57.948;12.514;2023-09-07T11:11:15;0.90;;;0.68;;
31126;SDS011;17775;57.948;12.514;2023-09-07T11:13:42;0.85;;;0.80;;
31126;SDS011;17775;57.948;12.514;2023-09-07T11:16:11;0.90;;;0.70;;
31126;SDS011;17775;57.948;12.514;2023-09-07T11:18:38;0.60;;;0.60;;
31126;SDS011;17775;57.948;12.514;2023-09-07T11:21:06;0.65;;;0.60;;
31126;SDS011;17775;57.948;12.514;2023-09-07T11:23:36;0.77;;;0.60;;
31126;SDS011;17775;57.948;12.514;2023-09-07T11:26:05;0.70;;;0.60;;
31126;SDS011;17775;57.948;12.514;2023-09-07T11:28:32;1.20;;;0.47;;
31126;SDS011;17775;57.948;12.514;2023-09-07T11:30:59;0.47;;;0.47;;
31126;SDS011;17775;57.948;12.514;2023-09-07T11:33:25;0.60;;;0.50;;
31126;SDS011;17775;57.948;12.514;2023-09-07T11:35:52;0.70;;;0.50;;
31126;SDS011;17775;57.948;12.514;2023-09-07T11:38:22;1.27;;;0.90;;
31126;SDS011;17775;57.948;12.514;2023-09-07T11:40:48;0.90;;;0.70;;
31126;SDS011;17775;57.948;12.514;2023-09-07T11:43:15;1.63;;;0.98;;
31126;SDS011;17775;57.948;12.514;2023-09-07T11:45:43;0.70;;;0.60;;
31126;SDS011;17775;57.948;12.514;2023-09-07T11:48:10;0.90;;;0.70;;
31126;SDS011;17775;57.948;12.514;2023-09-07T11:50:37;0.80;;;0.70;;
31126;SDS011;17775;57.948;12.514;2023-09-07T11:53:04;0.65;;;0.65;;
31126;SDS011;17775;57.948;12.514;2023-09-07T11:55:31;0.95;;;0.60;;
31126;SDS011;17775;57.948;12.514;2023-09-07T11:57:57;0.40;;;0.40;;
31126;SDS011;17775;57.948;12.514;2023-09-07T12:00:24;0.60;;;0.60;;
31126;SDS011;17775;57.948;12.514;2023-09-07T12:02:50;0.60;;;0.60;;
31126;SDS011;17775;57.948;12.514;2023-09-07T12:05:17;1.38;;;0.68;;
31126;SDS011;17775;57.948;12.514;2023-09-07T12:07:45;1.00;;;0.80;;
31126;SDS011;17775;57.948;12.514;2023-09-07T12:10:12;0.57;;;0.57;;
31126;SDS011;17775;57.948;12.514;2023-09-07T12:12:40;0.60;;;0.60;;
31126;SDS011;17775;57.948;12.514;2023-09-07T12:15:06;0.70;;;0.70;;
31126;SDS011;17775;57.948;12.514;2023-09-07T12:17:33;0.85;;;0.80;;
31126;SDS011;17775;57.948;12.514;2023-09-07T12:20:00;0.80;;;0.80;;
31126;SDS011;17775;57.948;12.514;2023-09-07T12:22:27;0.80;;;0.80;;
31126;SDS011;17775;57.948;12.514;2023-09-07T12:24:55;0.85;;;0.82;;
31126;SDS011;17775;57.948;12.514;2023-09-07T12:27:40;0.77;;;0.77;;
31126;SDS011;17775;57.948;12.514;2023-09-07T12:30:19;0.70;;;0.70;;
31126;SDS011;17775;57.948;12.514;2023-09-07T12:32:47;1.00;;;0.90;;
31126;SDS011;17775;57.948;12.514;2023-09-07T12:35:14;1.15;;;1.05;;
31126;SDS011;17775;57.948;12.514;2023-09-07T12:37:41;0.80;;;0.80;;
31126;SDS011;17775;57.948;12.514;2023-09-07T12:40:08;1.10;;;1.00;;
31126;SDS011;17775;57.948;12.514;2023-09-07T12:42:41;1.02;;;1.00;;
31126;SDS011;17775;57.948;12.514;2023-09-07T12:45:09;1.42;;;0.93;;
31126;SDS011;17775;57.948;12.514;2023-09-07T12:47:36;1.15;;;1.05;;
31126;SDS011;17775;57.948;12.514;2023-09-07T12:50:03;1.13;;;1.00;;
31126;SDS011;17775;57.948;12.514;2023-09-07T12:52:31;0.80;;;0.80;;
31126;SDS011;17775;57.948;12.514;2023-09-07T12:55:00;0.80;;;0.80;;
31126;SDS011;17775;57.948;12.514;2023-09-07T12:57:28;1.15;;;1.10;;
31126;SDS011;17775;57.948;12.514;2023-09-07T12:59:55;1.10;;;1.00;;
31126;SDS011;17775;57.948;12.514;2023-09-07T13:02:21;0.80;;;0.80;;
31126;SDS011;17775;57.948;12.514;2023-09-07T13:04:48;0.80;;;0.80;;
31126;SDS011;17775;57.948;12.514;2023-09-07T13:07:15;1.10;;;1.00;;
31126;SDS011;17775;57.948;12.514;2023-09-07T13:09:43;0.80;;;0.80;;
31126;SDS011;17775;57.948;12.514;2023-09-07T13:12:10;1.05;;;1.02;;
31126;SDS011;17775;57.948;12.514;2023-09-07T13:14:36;1.10;;;1.10;;
31126;SDS011;17775;57.948;12.514;2023-09-07T13:17:02;1.00;;;0.90;;
31126;SDS011;17775;57.948;12.514;2023-09-07T13:19:29;1.00;;;0.88;;
31126;SDS011;17775;57.948;12.514;2023-09-07T13:21:55;1.00;;;0.90;;
31126;SDS011;17775;57.948;12.514;2023-09-07T13:24:22;0.82;;;0.82;;
31126;SDS011;17775;57.948;12.514;2023-09-07T13:26:50;1.23;;;1.13;;
31126;SDS011;17775;57.948;12.514;2023-09-07T13:29:17;1.02;;;0.93;;
31126;SDS011;17775;57.948;12.514;2023-09-07T13:31:43;1.10;;;1.00;;
31126;SDS011;17775;57.948;12.514;2023-09-07T13:34:10;1.25;;;1.02;;
31126;SDS011;17775;57.948;12.514;2023-09-07T13:36:39;1.00;;;1.00;;
31126;SDS011;17775;57.948;12.514;2023-09-07T13:39:06;1.27;;;1.17;;
31126;SDS011;17775;57.948;12.514;2023-09-07T13:41:32;1.20;;;1.10;;
31126;SDS011;17775;57.948;12.514;2023-09-07T13:43:59;1.27;;;1.17;;
31126;SDS011;17775;57.948;12.514;2023-09-07T13:46:26;1.52;;;1.23;;
31126;SDS011;17775;57.948;12.514;2023-09-07T13:48:53;0.90;;;0.90;;
31126;SDS011;17775;57.948;12.514;2023-09-07T13:51:20;0.80;;;0.80;;
31126;SDS011;17775;57.948;12.514;2023-09-07T13:53:46;1.20;;;1.00;;
31126;SDS011;17775;57.948;12.514;2023-09-07T13:56:13;0.90;;;0.90;;
31126;SDS011;17775;57.948;12.514;2023-09-07T13:58:39;1.30;;;1.20;;
31126;SDS011;17775;57.948;12.514;2023-09-07T14:01:06;1.20;;;1.10;;
31126;SDS011;17775;57.948;12.514;2023-09-07T14:03:32;0.98;;;0.98;;
31126;SDS011;17775;57.948;12.514;2023-09-07T14:05:59;1.20;;;1.10;;
31126;SDS011;17775;57.948;12.514;2023-09-07T14:08:26;0.85;;;0.85;;
31126;SDS011;17775;57.948;12.514;2023-09-07T14:10:52;1.13;;;1.02;;
31126;SDS011;17775;57.948;12.514;2023-09-07T14:13:19;1.13;;;1.02;;
31126;SDS011;17775;57.948;12.514;2023-09-07T14:15:46;1.10;;;1.00;;
31126;SDS011;17775;57.948;12.514;2023-09-07T14:18:12;1.20;;;1.02;;
31126;SDS011;17775;57.948;12.514;2023-09-07T14:20:39;1.10;;;1.00;;
31126;SDS011;17775;57.948;12.514;2023-09-07T14:23:05;0.80;;;0.80;;
31126;SDS011;17775;57.948;12.514;2023-09-07T14:25:32;0.93;;;0.93;;
31126;SDS011;17775;57.948;12.514;2023-09-07T14:27:58;1.10;;;1.00;;
31126;SDS011;17775;57.948;12.514;2023-09-07T14:30:25;0.82;;;0.82;;
31126;SDS011;17775;57.948;12.514;2023-09-07T14:32:51;0.93;;;0.93;;
31126;SDS011;17775;57.948;12.514;2023-09-07T14:35:18;0.80;;;0.80;;
31126;SDS011;17775;57.948;12.514;2023-09-07T14:37:44;1.00;;;0.82;;
31126;SDS011;17775;57.948;12.514;2023-09-07T14:40:11;0.80;;;0.80;;